Historyczne dane pomiarowe

Dodano dane terminowe – wersja testowa.

Dane z okresu 1951-2019

Wersja bazy: 1.34 [2019-03-16, lista zmian], aktualizacja planowana na 2019-04-15

Dane meteo z obszaru Polski uzyskane na podstawie danych udostępnionych przez Instytut Meteorologii i Gospodarki Wodnej – Państwowy Instytut Badawczy.

 

Wybierz Datę:    

       

TemperaturaWilgotnośćWiatrCiśnienieOpadyŚniegCzas trwania zjawisk
 Stacja t tx tn tng RH VA  wxwx mslp ppp RRR   cm mm wxwxwxwxwxwxwx
1961-02-14 4.3 7.9 2.4 3.2 96.5- 5.3 0.0---- 0.0------------
1961-02-15 5.4 15.0 -1.3 -3.0 81.0- 0.0 1.3---- 0.0------------
1961-02-16 6.8 7.7 4.1 1.9 87.0- 8.0 1.7---- 0.0------------
1961-02-17 5.0 11.8 1.6 4.4 82.8- 3.0 1.3---- 0.0------------
1961-02-18 3.5 14.3 -2.7 -4.5 82.8- 0.0 0.3---- 0.0------------
1961-02-19 4.9 5.5 0.5 -1.6 92.8- 8.0 2.3---- 0.9------------
1961-02-20 5.1 5.9 4.4 4.2 90.5- 8.0 1.3---- 0.0------------
1961-02-21 3.4 8.6 0.8 3.2 83.0- 3.0 0.0---- 0.0------------
1961-02-22 1.8 8.8 -3.9 -5.4 85.5- 0.0 1.3---- 0.0------------
1961-02-23 1.5 7.3 -2.2 -3.6 88.8- 3.0 1.7---- 0.0------------
1961-02-24 0.9 9.7 -2.3 -1.2 95.3- 2.7 1.0---- 0.0------------
1961-02-25 1.3 8.9 -3.0 -4.8 86.5- 2.7 0.0---- 0.0------------
1961-02-26 2.7 11.1 -4.5 -6.1 79.3- 0.7 1.3---- 0.0------------
1961-02-27 7.9 9.5 -0.4 -1.6 73.3- 6.3 5.0---- 0.1------------
1961-02-28 8.0 13.0 4.4 7.1 71.5- 7.7 8.7---- 0.9------------
1961-03-01 3.5 6.4 2.0 2.1 90.5- 6.7 1.7---- 0.0------------
1961-03-02 3.7 6.3 -0.5 2.4 79.0- 8.0 2.3---- 1.0------------
1961-03-03 5.6 7.3 3.3 2.2 92.5- 8.0 1.0---- 2.1------------
1961-03-04 3.9 8.8 2.4 0.9 93.8- 5.3 1.3---- 0.0------------
1961-03-05 4.9 8.7 1.0 -0.3 86.0- 7.0 2.3---- 0.0------------
1961-03-06 4.0 11.0 1.1 -0.8 88.0- 4.0 1.0---- 0.0------------
1961-03-07 7.4 15.4 -0.2 -2.3 71.8- 4.3 1.3---- 0.0------------
1961-03-08 4.6 14.3 -1.9 -3.0 78.5- 2.7 1.3---- 0.0------------
1961-03-09 5.3 16.5 -1.5 -3.9 75.5- 0.7 0.7---- 0.0------------
1961-03-10 8.4 20.4 -3.5 -5.4 64.8- 0.3 0.3---- 0.0------------
1961-03-11 9.5 12.0 6.4 4.2 72.8- 7.7 3.7---- 0.0------------
1961-03-12 12.9 16.9 5.8 4.7 55.0- 7.7 9.3---- 1.3------------
1961-03-13 7.9 14.7 6.7 5.3 62.3- 7.0 4.7---- 4.6------------
1961-03-14 9.2 10.3 4.7 4.3 86.5- 8.0 4.0---- 2.2------------
1961-03-15 11.1 13.8 8.7 8.3 74.0- 7.0 5.7---- 0.0------------
189.4 ms

 

Źródłem pochodzenia danych jest Instytut Meteorologii i Gospodarki Wodnej – Państwowy Instytut Badawczy. Dane Instytutu Meteorologii i Gospodarki Wodnej – Państwowego Instytutu Badawczego zostały przetworzone.

Dane źródłowe można odnaleźć na stronie https://dane.imgw.pl